createdAt,value
2017-05-13T00:14:12.210Z,15.43
2017-05-13T00:14:53.677Z,15.36
2017-05-13T00:15:34.073Z,15.33
2017-05-13T00:16:16.941Z,15.33
2017-05-13T00:16:57.314Z,15.33
2017-05-13T00:17:37.749Z,15.27
2017-05-13T00:18:18.201Z,15.25
2017-05-13T00:18:58.612Z,15.32
2017-05-13T00:19:39.043Z,15.29
2017-05-13T00:20:19.444Z,15.25
2017-05-13T00:20:59.847Z,15.25
2017-05-13T00:21:40.252Z,15.19
2017-05-13T00:22:20.642Z,15.14
2017-05-13T00:23:01.028Z,15.17
2017-05-13T00:23:41.454Z,15.22
2017-05-13T00:24:21.864Z,15.04
2017-05-13T00:25:02.314Z,15.07
2017-05-13T00:25:44.249Z,15.1
2017-05-13T00:26:24.685Z,15.1
2017-05-13T00:27:05.077Z,15.14
2017-05-13T00:27:45.466Z,15.11
2017-05-13T00:28:27.678Z,15.15
2017-05-13T00:29:09.858Z,15.07
2017-05-13T00:29:50.258Z,15.07
2017-05-13T00:30:30.653Z,15.19
2017-05-13T00:31:11.126Z,15.12
2017-05-13T00:31:53.326Z,15.19
2017-05-13T00:32:33.696Z,15.19
2017-05-13T00:33:14.849Z,15.07
2017-05-13T00:33:55.829Z,15.17
2017-05-13T00:34:36.218Z,15.22
2017-05-13T00:35:17.483Z,15.15
2017-05-13T00:36:01.226Z,15.19
2017-05-13T00:36:43.513Z,15.14
2017-05-13T00:37:23.861Z,15.11
2017-05-13T00:38:04.284Z,15
2017-05-13T00:38:44.670Z,15.1
2017-05-13T00:39:25.092Z,15.17
2017-05-13T00:40:05.515Z,15.11
2017-05-13T00:40:46.679Z,15
2017-05-13T00:41:27.789Z,15.07
2017-05-13T00:42:08.195Z,15.12
2017-05-13T00:42:51.311Z,15.12
2017-05-13T00:43:32.537Z,15.08
2017-05-13T00:44:12.991Z,15.04
2017-05-13T00:44:53.944Z,15.14
2017-05-13T00:45:35.040Z,15.15
2017-05-13T00:46:15.428Z,15.07
2017-05-13T00:46:56.387Z,15.07
2017-05-13T00:47:38.361Z,15.04
2017-05-13T00:48:18.748Z,15.07
2017-05-13T00:49:00.782Z,15.15
2017-05-13T00:49:41.517Z,15.04
2017-05-13T00:50:24.494Z,15.07
2017-05-13T00:51:04.980Z,15.02
2017-05-13T00:51:46.276Z,15.07
2017-05-13T00:52:32.269Z,15.05
2017-05-13T00:53:12.729Z,15.05
2017-05-13T00:53:54.026Z,14.99
2017-05-13T00:54:34.436Z,15.04
2017-05-13T00:55:14.882Z,15.02
2017-05-13T00:55:56.918Z,15.05
2017-05-13T00:56:38.295Z,15.04
2017-05-13T00:57:22.406Z,14.99
2017-05-13T00:58:07.189Z,15.05
2017-05-13T00:58:47.564Z,14.94
2017-05-13T00:59:29.533Z,14.99
2017-05-13T01:00:09.956Z,15
2017-05-13T01:00:51.027Z,14.99
2017-05-13T01:01:31.445Z,14.87
2017-05-13T01:02:11.813Z,14.92
2017-05-13T01:03:01.698Z,14.9
2017-05-13T01:03:44.672Z,14.93
2017-05-13T01:04:25.095Z,14.85
2017-05-13T01:05:06.369Z,14.94
2017-05-13T01:05:47.463Z,14.89
2017-05-13T01:06:28.761Z,14.97
2017-05-13T01:07:09.216Z,14.87
2017-05-13T01:07:50.302Z,14.85
2017-05-13T01:08:31.452Z,14.93
2017-05-13T01:09:12.784Z,14.97
2017-05-13T01:09:53.150Z,14.87
2017-05-13T01:10:33.560Z,14.9
2017-05-13T01:11:14.876Z,14.86
2017-05-13T01:11:55.350Z,14.97
2017-05-13T01:12:37.227Z,14.96
2017-05-13T01:13:18.455Z,14.93
2017-05-13T01:14:00.299Z,14.93
2017-05-13T01:14:42.497Z,14.87
2017-05-13T01:15:22.890Z,14.94
2017-05-13T01:16:03.289Z,14.94
2017-05-13T01:16:45.204Z,14.85
2017-05-13T01:17:26.528Z,14.87
2017-05-13T01:18:08.785Z,14.86
2017-05-13T01:18:51.889Z,14.9
2017-05-13T01:19:33.223Z,14.86
2017-05-13T01:20:14.417Z,14.92
2017-05-13T01:20:54.903Z,14.86
2017-05-13T01:21:37.822Z,14.77
2017-05-13T01:22:19.030Z,14.77
2017-05-13T01:23:01.386Z,14.71
2017-05-13T01:23:43.453Z,14.79
2017-05-13T01:24:23.891Z,14.74
2017-05-13T01:26:11.948Z,14.68
2017-05-13T01:26:52.371Z,14.62
2017-05-13T01:27:32.803Z,14.62
2017-05-13T01:28:14.656Z,14.66
2017-05-13T01:28:56.932Z,14.62
2017-05-13T01:29:37.351Z,14.66
2017-05-13T01:30:17.820Z,14.7
2017-05-13T01:30:58.201Z,14.62
2017-05-13T01:31:40.383Z,14.56
2017-05-13T01:32:21.676Z,14.56
2017-05-13T01:33:02.670Z,14.66
2017-05-13T01:33:44.660Z,14.62
2017-05-13T01:34:27.633Z,14.55
2017-05-13T01:35:08.059Z,14.52
2017-05-13T01:35:50.289Z,14.61
2017-05-13T01:36:30.671Z,14.52
2017-05-13T01:37:12.709Z,14.49
2017-05-13T01:37:53.737Z,14.51
2017-05-13T01:38:34.193Z,14.51
2017-05-13T01:39:14.632Z,14.51
2017-05-13T01:39:55.606Z,14.53
2017-05-13T01:40:37.657Z,14.48
2017-05-13T01:41:18.069Z,14.53
2017-05-13T01:41:59.380Z,14.48
2017-05-13T01:42:42.578Z,14.52
2017-05-13T01:43:22.993Z,14.49
2017-05-13T01:44:06.390Z,14.53
2017-05-13T01:44:46.809Z,14.52
2017-05-13T01:45:27.269Z,14.53
2017-05-13T01:46:09.596Z,14.52
2017-05-13T01:46:51.721Z,14.48
2017-05-13T01:47:33.733Z,14.51
2017-05-13T01:48:14.154Z,14.55
2017-05-13T01:48:55.359Z,14.55
2017-05-13T01:49:35.800Z,14.49
2017-05-13T01:50:16.249Z,14.51
2017-05-13T01:50:56.633Z,14.52
2017-05-13T01:51:40.841Z,14.49
2017-05-13T01:53:55.471Z,14.49
2017-05-13T01:54:42.290Z,14.48
2017-05-13T01:55:23.150Z,14.41
2017-05-13T01:56:03.587Z,14.43
2017-05-13T01:56:44.639Z,14.48
2017-05-13T01:57:25.788Z,14.38
2017-05-13T01:58:06.167Z,14.36
2017-05-13T01:58:46.591Z,14.45
2017-05-13T01:59:27.043Z,14.36
2017-05-13T02:00:08.938Z,14.34
2017-05-13T02:00:50.859Z,14.36
2017-05-13T02:01:34.835Z,14.37
2017-05-13T02:02:16.803Z,14.36
2017-05-13T02:02:57.795Z,14.34
2017-05-13T02:05:15.092Z,14.34
2017-05-13T02:05:56.289Z,14.38
2017-05-13T02:06:40.293Z,14.31
2017-05-13T02:07:21.793Z,14.37
2017-05-13T02:08:02.214Z,14.34
2017-05-13T02:08:42.720Z,14.26
2017-05-13T02:09:23.066Z,14.28
2017-05-13T02:10:03.489Z,14.33
2017-05-13T02:10:43.936Z,14.31
2017-05-13T02:11:25.927Z,14.31
2017-05-13T02:12:09.157Z,14.34
2017-05-13T02:12:50.463Z,14.33
2017-05-13T02:13:32.417Z,14.36
2017-05-13T02:14:14.335Z,14.37
2017-05-13T02:15:00.411Z,14.3
2017-05-13T02:15:41.530Z,14.33
2017-05-13T02:16:23.469Z,14.36
2017-05-13T02:17:05.362Z,14.34
2017-05-13T02:17:48.642Z,14.23
2017-05-13T02:18:30.940Z,14.22
2017-05-13T02:19:11.305Z,14.28
2017-05-13T02:19:51.808Z,14.23
2017-05-13T02:20:33.872Z,14.33
2017-05-13T02:21:16.141Z,14.25
2017-05-13T02:21:57.406Z,14.19
2017-05-13T02:22:39.416Z,14.18
2017-05-13T02:23:20.582Z,14.23
2017-05-13T02:24:01.593Z,14.12
2017-05-13T02:24:42.681Z,14.18
2017-05-13T02:25:23.085Z,14.15
2017-05-13T02:26:04.806Z,14.2
2017-05-13T02:26:48.810Z,14.19
2017-05-13T02:27:29.561Z,14.15
2017-05-13T02:28:10.614Z,14.22
2017-05-13T02:28:52.640Z,14.22
2017-05-13T02:29:34.828Z,14.16
2017-05-13T02:30:15.803Z,14.3
2017-05-13T02:30:58.059Z,14.19
2017-05-13T02:31:38.725Z,14.18
2017-05-13T02:32:20.842Z,14.18
2017-05-13T02:33:02.078Z,14.08
2017-05-13T02:33:42.516Z,14.2
2017-05-13T02:34:22.954Z,14.22
2017-05-13T02:35:03.607Z,14.2
2017-05-13T02:37:16.657Z,14.2
2017-05-13T02:37:57.906Z,14.33
2017-05-13T02:38:38.314Z,14.2
2017-05-13T02:39:18.910Z,14.25
2017-05-13T02:39:59.648Z,14.2
2017-05-13T02:40:40.095Z,14.23
2017-05-13T02:41:20.783Z,14.25
2017-05-13T02:42:01.236Z,14.25
2017-05-13T02:42:43.475Z,14.26
2017-05-13T02:43:23.857Z,14.23
2017-05-13T02:44:04.972Z,14.26
2017-05-13T02:44:45.689Z,14.25
2017-05-13T02:45:26.843Z,14.22
2017-05-13T02:46:07.296Z,14.33
2017-05-13T02:46:48.387Z,14.25
2017-05-13T02:47:28.862Z,14.26
2017-05-13T02:48:09.942Z,14.36
2017-05-13T02:48:51.784Z,14.36
2017-05-13T02:49:32.284Z,14.31
2017-05-13T02:50:14.424Z,14.31
2017-05-13T02:50:54.855Z,14.26
2017-05-13T02:51:35.472Z,14.34
2017-05-13T02:52:17.648Z,14.26
2017-05-13T02:52:58.028Z,14.28
2017-05-13T02:53:39.327Z,14.26
2017-05-13T02:54:19.807Z,14.28
2017-05-13T02:55:00.245Z,14.22
2017-05-13T02:55:41.345Z,14.3
2017-05-13T02:56:21.888Z,14.22
2017-05-13T02:57:02.314Z,14.28
2017-05-13T02:57:44.593Z,14.31
2017-05-13T02:58:25.961Z,14.3
2017-05-13T02:59:06.343Z,14.23
2017-05-13T02:59:46.802Z,14.28
2017-05-13T03:00:27.254Z,14.26
2017-05-13T03:01:08.902Z,14.18
2017-05-13T03:01:50.260Z,14.16
2017-05-13T03:02:31.441Z,14.18
2017-05-13T03:03:12.797Z,14.18
2017-05-13T03:03:57.815Z,14.18
2017-05-13T03:04:38.989Z,14.07
2017-05-13T03:05:19.459Z,14.12
2017-05-13T03:06:00.763Z,14.16
2017-05-13T03:06:41.700Z,14.08
2017-05-13T03:07:23.262Z,14.08
2017-05-13T03:08:03.680Z,14.18
2017-05-13T03:08:44.884Z,14.15
2017-05-13T03:09:25.229Z,14.13
2017-05-13T03:10:06.649Z,14.07
2017-05-13T03:10:47.911Z,14.13
2017-05-13T03:11:28.264Z,14.08
2017-05-13T03:12:08.678Z,14
2017-05-13T03:12:50.794Z,14.13
2017-05-13T03:13:31.563Z,14
2017-05-13T03:14:12.877Z,14.11
2017-05-13T03:14:53.342Z,14.04
2017-05-13T03:15:34.453Z,14.07
2017-05-13T03:16:14.953Z,14.04
2017-05-13T03:16:55.370Z,14.01
2017-05-13T03:17:35.714Z,14.03
2017-05-13T03:18:16.119Z,14
2017-05-13T03:18:58.878Z,13.94
2017-05-13T03:19:39.293Z,13.97
2017-05-13T03:20:20.609Z,13.97
2017-05-13T03:21:01.041Z,13.85
2017-05-13T03:21:45.037Z,13.97
2017-05-13T03:22:25.480Z,13.83
2017-05-13T03:23:06.574Z,13.91
2017-05-13T03:23:49.375Z,13.91
2017-05-13T03:24:30.383Z,13.94
2017-05-13T03:25:10.747Z,13.91
2017-05-13T03:25:51.272Z,13.82
2017-05-13T03:26:31.673Z,13.91
2017-05-13T03:27:12.121Z,13.86
2017-05-13T03:27:52.563Z,13.83
2017-05-13T03:28:33.651Z,13.91
2017-05-13T03:30:47.536Z,13.86
2017-05-13T03:31:27.940Z,13.85
2017-05-13T03:32:08.363Z,13.87
2017-05-13T03:32:49.607Z,13.8
2017-05-13T03:33:30.031Z,13.87
2017-05-13T03:34:10.495Z,13.8
2017-05-13T03:34:51.605Z,13.83
2017-05-13T03:35:32.005Z,13.79
2017-05-13T03:36:12.441Z,13.86
2017-05-13T03:36:52.803Z,13.73
2017-05-13T03:37:35.063Z,13.82
2017-05-13T03:38:15.416Z,13.73
2017-05-13T03:38:55.852Z,13.73
2017-05-13T03:39:36.275Z,13.7
2017-05-13T03:40:16.671Z,13.71
2017-05-13T03:40:57.078Z,13.86
2017-05-13T03:41:38.261Z,13.68
2017-05-13T03:42:19.595Z,13.73
2017-05-13T03:43:01.591Z,13.73
2017-05-13T03:45:15.810Z,13.86
2017-05-13T03:45:56.203Z,13.7
2017-05-13T03:46:38.579Z,13.76
2017-05-13T03:47:20.780Z,13.7
2017-05-13T03:48:02.088Z,13.75
2017-05-13T03:48:43.105Z,13.82
2017-05-13T03:49:24.000Z,13.86
2017-05-13T03:51:41.973Z,13.76
2017-05-13T03:53:31.325Z,13.76
2017-05-13T03:55:48.296Z,13.76
2017-05-13T03:57:38.043Z,13.76
2017-05-13T03:58:18.413Z,13.8
2017-05-13T04:01:41.349Z,13.71
2017-05-13T04:03:29.581Z,13.75
2017-05-13T04:04:11.863Z,13.65
2017-05-13T04:04:53.714Z,13.73
2017-05-13T04:05:34.638Z,13.7
2017-05-13T04:07:50.556Z,13.78
2017-05-13T04:08:30.953Z,13.78
2017-05-13T04:11:14.523Z,13.71
2017-05-13T04:11:55.432Z,13.71
2017-05-13T04:12:35.842Z,13.79
2017-05-13T04:13:17.206Z,13.76
2017-05-13T04:13:59.312Z,13.85
2017-05-13T04:14:39.773Z,13.78
2017-05-13T04:15:20.192Z,13.85
2017-05-13T04:16:01.569Z,13.78
2017-05-13T04:16:42.888Z,13.94
2017-05-13T04:17:24.231Z,13.86
2017-05-13T04:18:04.691Z,13.85
2017-05-13T04:18:45.092Z,13.85
2017-05-13T04:19:25.522Z,13.86
2017-05-13T04:20:06.899Z,13.89
2017-05-13T04:20:47.317Z,13.87
2017-05-13T04:21:27.748Z,13.86
2017-05-13T04:22:08.158Z,13.91
2017-05-13T04:22:48.609Z,14
2017-05-13T04:23:28.940Z,13.86
2017-05-13T04:24:10.412Z,13.93
2017-05-13T04:24:52.215Z,13.97
2017-05-13T04:28:38.100Z,14.04
2017-05-13T04:29:18.499Z,14.03
2017-05-13T04:29:59.766Z,14.05
2017-05-13T04:30:43.682Z,14.03
2017-05-13T04:31:24.116Z,14.12
2017-05-13T04:33:38.848Z,14.03
2017-05-13T04:34:19.906Z,14.15
2017-05-13T04:36:33.977Z,14.15
2017-05-13T04:38:54.385Z,14.23
2017-05-13T04:40:44.197Z,14.25
2017-05-13T04:41:24.568Z,14.28
2017-05-13T04:44:09.316Z,14.38
2017-05-13T04:45:57.337Z,14.49
2017-05-13T04:46:37.714Z,14.52
2017-05-13T04:49:44.096Z,14.59
2017-05-13T04:50:26.415Z,14.73
2017-05-13T04:52:15.115Z,14.74
2017-05-13T04:52:55.621Z,14.74
2017-05-13T04:53:38.662Z,14.82
2017-05-13T04:54:19.854Z,14.78
2017-05-13T04:55:01.838Z,14.86
2017-05-13T04:55:44.707Z,14.78
2017-05-13T04:56:26.614Z,14.87
2017-05-13T04:57:11.676Z,14.82
2017-05-13T04:57:52.097Z,14.85
2017-05-13T04:58:35.102Z,14.93
2017-05-13T04:59:17.259Z,14.94
2017-05-13T04:59:57.696Z,14.9
2017-05-13T05:00:38.926Z,14.99
2017-05-13T05:01:22.839Z,14.99
2017-05-13T05:03:38.737Z,15
2017-05-13T05:04:22.887Z,15.08
2017-05-13T05:05:04.221Z,15.05
2017-05-13T05:07:34.666Z,15.1
2017-05-13T05:09:25.895Z,15.27
2017-05-13T05:11:14.294Z,15.39
2017-05-13T05:12:09.875Z,15.43
2017-05-13T05:14:26.004Z,15.5
2017-05-13T05:16:41.976Z,15.66
2017-05-13T05:17:23.371Z,15.69
2017-05-13T05:18:05.807Z,15.67
2017-05-13T05:20:52.792Z,16.13
2017-05-13T05:21:33.450Z,16.21
2017-05-13T05:23:52.246Z,16.55
2017-05-13T05:24:33.001Z,16.61
2017-05-13T05:25:14.922Z,16.69
2017-05-13T05:25:56.229Z,16.89
2017-05-13T05:26:38.712Z,16.99
2017-05-13T05:27:19.167Z,17.02
2017-05-13T05:27:59.596Z,17.2
2017-05-13T05:28:41.897Z,17.12
2017-05-13T05:29:23.364Z,17.22
2017-05-13T05:30:04.506Z,17.28
2017-05-13T05:30:46.715Z,17.31
2017-05-13T05:31:30.145Z,17.34
2017-05-13T05:32:11.835Z,17.38
2017-05-13T05:32:53.395Z,17.49
2017-05-13T05:33:35.239Z,17.5
2017-05-13T05:34:15.647Z,17.5
2017-05-13T05:34:56.849Z,17.46
2017-05-13T05:35:37.232Z,17.49
2017-05-13T05:36:18.213Z,17.49
2017-05-13T05:37:01.569Z,17.39
2017-05-13T05:37:42.542Z,17.38
2017-05-13T05:38:25.773Z,17.28
2017-05-13T05:39:07.925Z,17.35
2017-05-13T05:39:49.782Z,17.28
2017-05-13T05:40:33.759Z,17.2
2017-05-13T05:41:14.165Z,17.2
2017-05-13T05:41:54.668Z,17.2
2017-05-13T05:42:36.321Z,17.17
2017-05-13T05:43:16.891Z,17.3
2017-05-13T05:43:58.075Z,17.31
2017-05-13T05:44:42.731Z,17.35
2017-05-13T05:45:23.712Z,17.28
2017-05-13T05:46:04.772Z,17.42
2017-05-13T05:46:47.447Z,17.5
2017-05-13T05:47:27.921Z,17.57
2017-05-13T05:48:09.821Z,17.78
2017-05-13T05:48:52.133Z,17.87
2017-05-13T05:49:32.513Z,18.08
2017-05-13T05:50:14.387Z,18.18
2017-05-13T05:50:54.831Z,18.36
2017-05-13T05:51:36.801Z,18.39
2017-05-13T05:52:18.039Z,18.42
2017-05-13T05:53:00.650Z,18.63
2017-05-13T05:53:43.714Z,18.63
2017-05-13T05:54:24.182Z,18.81
2017-05-13T05:55:04.597Z,18.67
2017-05-13T05:57:25.396Z,18.71
2017-05-13T05:58:07.483Z,18.67
2017-05-13T05:58:48.780Z,18.58
2017-05-13T05:59:30.610Z,18.67
2017-05-13T06:00:11.849Z,18.74
2017-05-13T06:00:53.494Z,18.63
2017-05-13T06:01:39.487Z,18.63
2017-05-13T06:02:20.720Z,18.68
2017-05-13T06:03:03.025Z,18.7
2017-05-13T06:03:44.995Z,18.66
2017-05-13T06:04:29.049Z,18.6
2017-05-13T06:05:09.437Z,18.61
2017-05-13T06:05:53.017Z,18.55
2017-05-13T06:06:35.090Z,18.51
2017-05-13T06:07:17.083Z,18.49
2017-05-13T06:07:57.797Z,18.48
2017-05-13T06:09:01.531Z,18.45
2017-05-13T06:09:42.615Z,18.31
2017-05-13T06:10:28.598Z,18.31
2017-05-13T06:11:09.095Z,18.27
2017-05-13T06:11:51.122Z,18.24
2017-05-13T06:12:33.134Z,18.09
2017-05-13T06:13:13.585Z,18.06
2017-05-13T06:13:56.523Z,18.02
2017-05-13T06:14:37.704Z,17.95
2017-05-13T06:15:18.094Z,17.98
2017-05-13T06:16:01.207Z,17.94
2017-05-13T06:19:50.188Z,17.93
2017-05-13T06:20:31.134Z,17.88
2017-05-13T06:21:11.701Z,17.9
2017-05-13T06:21:57.833Z,17.91
2017-05-13T06:22:41.061Z,17.94
2017-05-13T06:23:23.026Z,17.94
2017-05-13T06:24:06.141Z,17.91
2017-05-13T06:24:49.035Z,17.93
2017-05-13T06:25:32.241Z,17.9
2017-05-13T06:26:14.227Z,17.86
2017-05-13T06:28:32.470Z,17.91
2017-05-13T06:29:13.666Z,17.97
2017-05-13T06:29:54.058Z,17.93
2017-05-13T06:30:34.470Z,17.93
2017-05-13T06:31:14.891Z,17.91
2017-05-13T06:31:57.081Z,17.91
2017-05-13T06:32:39.347Z,18.06
2017-05-13T06:33:21.076Z,18.11
2017-05-13T06:34:03.347Z,18.12
2017-05-13T06:34:46.071Z,18.28
2017-05-13T06:35:27.331Z,18.31
2017-05-13T06:36:09.827Z,18.31
2017-05-13T06:36:50.046Z,18.23
2017-05-13T06:37:31.259Z,18.23
2017-05-13T06:38:13.285Z,18.21
2017-05-13T06:38:53.651Z,18.21
2017-05-13T06:39:34.154Z,18.21
2017-05-13T06:40:15.441Z,18.21
2017-05-13T06:40:55.839Z,18.3
2017-05-13T06:41:40.585Z,18.23
2017-05-13T06:42:21.928Z,18.3
2017-05-13T06:43:03.088Z,18.3
2017-05-13T06:43:43.538Z,18.34
2017-05-13T06:45:31.386Z,18.05
2017-05-13T06:46:16.263Z,18.05
2017-05-13T06:46:57.408Z,17.98
2017-05-13T06:47:37.831Z,17.93
2017-05-13T06:48:18.213Z,17.87
2017-05-13T06:49:00.258Z,17.88
2017-05-13T06:49:40.678Z,17.84
2017-05-13T06:50:21.795Z,17.79
2017-05-13T06:51:03.966Z,17.82
2017-05-13T06:51:45.007Z,17.72
2017-05-13T06:52:25.451Z,17.72
2017-05-13T06:53:06.822Z,17.76
2017-05-13T06:53:47.295Z,17.72
2017-05-13T06:54:27.656Z,17.8
2017-05-13T06:55:08.088Z,17.86
2017-05-13T06:55:49.666Z,17.86
2017-05-13T06:56:30.104Z,17.93
2017-05-13T06:57:13.403Z,18.05
2017-05-13T06:57:55.804Z,18.12
2017-05-13T06:58:36.207Z,18.08
2017-05-13T06:59:18.285Z,18.23
2017-05-13T06:59:58.749Z,18.23
2017-05-13T07:00:39.134Z,18.31
2017-05-13T07:01:20.336Z,18.42
2017-05-13T07:02:01.265Z,18.52
2017-05-13T07:02:41.705Z,18.68
2017-05-13T07:03:22.133Z,18.73
2017-05-13T07:04:02.510Z,18.86
2017-05-13T07:04:42.939Z,18.96
2017-05-13T07:05:23.337Z,18.96
2017-05-13T07:06:06.191Z,19.12
2017-05-13T07:06:46.863Z,19.24
2017-05-13T07:07:29.671Z,19.57
2017-05-13T07:08:10.119Z,19.66
2017-05-13T07:08:51.201Z,19.85
2017-05-13T07:09:33.428Z,20.07
2017-05-13T07:10:13.852Z,20.29
2017-05-13T07:10:55.176Z,20.4
2017-05-13T07:11:35.607Z,20.6
2017-05-13T07:12:16.826Z,20.66
2017-05-13T07:12:57.855Z,20.89
2017-05-13T07:15:10.998Z,21.2
2017-05-13T07:15:51.416Z,21.41
2017-05-13T07:16:31.846Z,21.5
2017-05-13T07:17:12.929Z,21.68
2017-05-13T07:17:54.303Z,21.75
2017-05-13T07:18:37.440Z,21.89
2017-05-13T07:19:19.494Z,22.08
2017-05-13T07:20:00.451Z,22.26
2017-05-13T07:20:41.751Z,22.41
2017-05-13T07:21:22.201Z,22.73
2017-05-13T07:22:06.279Z,23.11
2017-05-13T07:22:47.813Z,23.54
2017-05-13T07:24:27.975Z,24.99
2017-05-13T07:25:08.376Z,25.7
2017-05-13T07:25:49.268Z,26.48
2017-05-13T07:26:30.423Z,27.25
2017-05-13T07:29:57.131Z,30.52
2017-05-13T07:30:38.209Z,31.13
2017-05-13T07:31:18.616Z,31.74
2017-05-13T07:31:59.856Z,32.26
2017-05-13T07:34:13.145Z,33.26
2017-05-13T07:34:56.571Z,33.58
2017-05-13T07:35:37.925Z,33.89
2017-05-13T07:36:18.936Z,33.97
2017-05-13T07:37:01.077Z,34.22
2017-05-13T07:37:45.863Z,34.46
2017-05-13T07:38:26.996Z,34.81
2017-05-13T07:40:22.313Z,35.44
2017-05-13T07:41:06.346Z,35.35
2017-05-13T07:41:47.547Z,34.91
2017-05-13T07:42:27.948Z,34.09
2017-05-13T07:43:08.523Z,33.39
2017-05-13T07:43:54.157Z,32.39
2017-05-13T07:44:34.655Z,31.5
2017-05-13T07:45:17.840Z,30.69
2017-05-13T07:45:58.499Z,29.9
2017-05-13T07:46:42.411Z,29.07
2017-05-13T07:51:37.973Z,25.34
2017-05-13T07:52:18.410Z,25.14
2017-05-13T07:52:58.822Z,24.94
2017-05-13T07:53:40.239Z,24.78
2017-05-13T07:54:20.687Z,24.61
2017-05-13T07:55:01.113Z,24.41
2017-05-13T07:55:42.457Z,24.32
2017-05-13T07:56:24.477Z,24.36
2017-05-13T07:57:04.864Z,24.34
2017-05-13T07:57:45.300Z,24.31
2017-05-13T07:58:26.724Z,24.24
2017-05-13T07:59:07.115Z,24.18
2017-05-13T08:01:05.086Z,23.99
2017-05-13T08:01:45.526Z,23.85
2017-05-13T08:02:25.988Z,23.76
2017-05-13T08:04:26.875Z,23.48
2017-05-13T08:05:08.886Z,23.28
2017-05-13T08:05:49.961Z,23.26
2017-05-13T08:06:30.409Z,23.29
2017-05-13T08:07:12.372Z,23.2
2017-05-13T08:07:53.490Z,23.18
2017-05-13T08:08:33.906Z,23.14
2017-05-13T08:09:14.333Z,23.08
2017-05-13T08:09:55.375Z,23.07
2017-05-13T08:10:35.779Z,22.93
2017-05-13T08:12:23.332Z,22.55
2017-05-13T08:13:04.600Z,22.47
2017-05-13T08:13:45.036Z,22.36
2017-05-13T08:14:25.465Z,22.28
2017-05-13T08:15:06.501Z,22.26
2017-05-13T08:15:48.580Z,22.12
2017-05-13T08:16:29.011Z,22.07
2017-05-13T08:17:09.459Z,21.97
2017-05-13T08:17:51.539Z,21.85
2017-05-13T08:18:31.920Z,21.75
2017-05-13T08:19:12.461Z,21.66
2017-05-13T08:19:52.884Z,21.58
2017-05-13T08:20:33.249Z,21.6
2017-05-13T08:21:13.683Z,21.53
2017-05-13T08:21:57.073Z,21.4
2017-05-13T08:22:37.501Z,21.44
2017-05-13T08:23:18.692Z,21.47
2017-05-13T08:23:59.127Z,21.43
2017-05-13T08:24:39.660Z,21.44
2017-05-13T08:25:20.087Z,21.4
2017-05-13T08:26:00.663Z,21.5
2017-05-13T08:26:41.910Z,21.53
2017-05-13T08:27:22.341Z,21.69
2017-05-13T08:29:20.062Z,21.89
2017-05-13T08:30:00.566Z,21.89
2017-05-13T08:30:40.978Z,21.96
2017-05-13T08:31:21.391Z,21.99
2017-05-13T08:32:01.770Z,21.99
2017-05-13T08:32:42.248Z,21.97
2017-05-13T08:33:22.790Z,21.85
2017-05-13T08:34:03.197Z,21.89
2017-05-13T08:34:43.611Z,21.78
2017-05-13T08:35:24.108Z,21.69
2017-05-13T08:36:04.563Z,21.66
2017-05-13T08:36:44.974Z,21.62
2017-05-13T08:37:25.404Z,21.53
2017-05-13T08:38:05.815Z,21.38
2017-05-13T08:38:46.276Z,21.26
2017-05-13T08:39:26.674Z,21.14
2017-05-13T08:40:08.130Z,21.1
2017-05-13T08:40:48.760Z,20.98
2017-05-13T08:41:29.189Z,20.88
2017-05-13T08:42:09.663Z,20.77
2017-05-13T08:42:50.113Z,20.67
2017-05-13T08:43:30.616Z,20.67
2017-05-13T08:44:11.032Z,20.52
2017-05-13T08:44:51.456Z,20.53
2017-05-13T08:45:32.131Z,20.46
2017-05-13T08:46:12.675Z,20.4
2017-05-13T08:46:53.006Z,20.36
2017-05-13T08:47:34.272Z,20.27
2017-05-13T08:48:14.716Z,20.18
2017-05-13T08:48:55.145Z,20.18
2017-05-13T08:49:35.559Z,20.12
2017-05-13T08:50:15.987Z,20.07
2017-05-13T08:50:56.383Z,20.07
2017-05-13T08:51:36.874Z,20
2017-05-13T08:52:17.320Z,20.08
2017-05-13T08:52:57.839Z,20.07
2017-05-13T08:53:39.068Z,20.02
2017-05-13T08:54:21.247Z,19.93
2017-05-13T08:55:01.787Z,20
2017-05-13T08:55:42.275Z,19.92
2017-05-13T08:56:22.723Z,19.85
2017-05-13T08:57:03.132Z,19.89
2017-05-13T08:57:43.644Z,19.87
2017-05-13T08:58:24.371Z,19.79
2017-05-13T08:59:05.129Z,19.81
2017-05-13T08:59:45.501Z,19.79
2017-05-13T09:00:25.948Z,19.87
2017-05-13T09:01:06.343Z,20.02
2017-05-13T09:01:46.790Z,20
2017-05-13T09:02:27.214Z,20.02
2017-05-13T09:03:07.781Z,20.02
2017-05-13T09:03:48.295Z,20.11
2017-05-13T09:04:28.833Z,20.17
2017-05-13T09:05:09.131Z,20.22
2017-05-13T09:05:49.625Z,20.27
2017-05-13T09:06:30.058Z,20.34
2017-05-13T09:07:10.515Z,20.33
2017-05-13T09:07:50.932Z,20.39
2017-05-13T09:08:32.383Z,20.48
2017-05-13T09:09:13.648Z,20.63
2017-05-13T09:09:54.071Z,20.7
2017-05-13T09:10:34.597Z,20.89
2017-05-13T09:11:15.027Z,20.98
2017-05-13T09:11:55.470Z,21.19
2017-05-13T09:12:35.922Z,21.28
2017-05-13T09:13:16.639Z,21.59
2017-05-13T09:13:57.064Z,21.74
2017-05-13T09:14:37.492Z,21.92
2017-05-13T09:15:17.962Z,22.15
2017-05-13T09:15:58.419Z,22.43
2017-05-13T09:16:38.796Z,22.68
2017-05-13T09:17:19.228Z,22.93
2017-05-13T09:17:59.711Z,23.13
2017-05-13T09:18:40.320Z,23.23
2017-05-13T09:19:22.483Z,23.32
2017-05-13T09:20:02.772Z,23.29
2017-05-13T09:20:43.500Z,23.29
2017-05-13T09:21:23.730Z,23.45
2017-05-13T09:22:04.188Z,23.34
2017-05-13T09:22:45.477Z,23.34
2017-05-13T09:23:26.803Z,23.4
2017-05-13T09:24:07.187Z,23.51
2017-05-13T09:24:47.730Z,23.66
2017-05-13T09:25:28.141Z,23.84
2017-05-13T09:26:08.501Z,24.13
2017-05-13T09:26:49.090Z,24.44
2017-05-13T09:27:30.465Z,24.74
2017-05-13T09:28:10.924Z,24.96
2017-05-13T09:28:51.311Z,25.04
2017-05-13T09:29:31.695Z,25.14
2017-05-13T09:30:12.123Z,25.14
2017-05-13T09:30:52.569Z,25.24
2017-05-13T09:31:33.100Z,25.22
2017-05-13T09:32:13.498Z,25.25
2017-05-13T09:32:53.948Z,25.25
2017-05-13T09:33:34.342Z,25.25
2017-05-13T09:34:14.808Z,25.21
2017-05-13T09:34:56.478Z,25.04
2017-05-13T09:35:37.073Z,25.03
2017-05-13T09:36:17.441Z,24.94
2017-05-13T09:36:57.931Z,24.99
2017-05-13T09:37:39.078Z,24.85
2017-05-13T09:38:19.550Z,24.88
2017-05-13T09:39:00.037Z,24.92
2017-05-13T09:39:40.447Z,25.29
2017-05-13T09:40:20.887Z,26.04
2017-05-13T09:41:01.949Z,27.26
2017-05-13T09:41:42.882Z,28.55
2017-05-13T09:42:23.832Z,29.44
2017-05-13T09:43:04.325Z,30.1
2017-05-13T09:43:44.694Z,30.99
2017-05-13T09:44:25.134Z,31.81
2017-05-13T09:46:23.531Z,33.48
2017-05-13T09:47:06.690Z,34.32
2017-05-13T09:47:47.200Z,35.26
2017-05-13T09:48:31.163Z,36.09
2017-05-13T09:49:12.652Z,36.69
2017-05-13T09:49:54.221Z,37.22
2017-05-13T09:50:37.057Z,37.78
2017-05-13T09:51:20.067Z,38.42
2017-05-13T09:52:02.131Z,39.22
2017-05-13T09:52:42.959Z,39.98
2017-05-13T09:53:24.205Z,40.57
2017-05-13T09:54:04.689Z,41
2017-05-13T09:54:45.618Z,41.1
2017-05-13T09:55:26.072Z,40.89
2017-05-13T09:56:09.017Z,40.42
2017-05-13T09:56:52.055Z,39.73
2017-05-13T09:57:32.633Z,39.08
2017-05-13T09:58:13.798Z,38.35
2017-05-13T09:58:54.866Z,37.75
2017-05-13T09:59:35.268Z,37.15
2017-05-13T10:00:17.018Z,36.96
2017-05-13T10:01:01.700Z,36.76
2017-05-13T10:01:42.040Z,36.69
2017-05-13T10:02:22.467Z,36.62
2017-05-13T10:03:03.525Z,36.55
2017-05-13T10:03:44.886Z,36.66
2017-05-13T10:05:43.157Z,37.56
2017-05-13T10:06:26.322Z,38.04
2017-05-13T10:07:07.340Z,38.44
2017-05-13T10:07:49.582Z,38.6
2017-05-13T10:08:30.696Z,38.54
2017-05-13T10:09:11.831Z,38.36
2017-05-13T10:09:52.998Z,38.1
2017-05-13T10:10:34.197Z,37.86
2017-05-13T10:11:15.800Z,37.92
2017-05-13T10:11:56.277Z,37.9
2017-05-13T10:12:36.823Z,38.04
2017-05-13T10:13:25.140Z,37.92
2017-05-13T10:14:07.231Z,37.86
2017-05-13T10:14:47.699Z,37.78
2017-05-13T10:15:28.375Z,37.8
2017-05-13T10:16:11.519Z,37.72
2017-05-13T10:16:53.177Z,37.73
2017-05-13T10:17:34.418Z,37.63
2017-05-13T10:18:14.847Z,37.53
2017-05-13T10:18:55.258Z,37.25
2017-05-13T10:19:35.759Z,37.09
2017-05-13T10:20:16.177Z,36.82
2017-05-13T10:20:58.301Z,36.51
2017-05-13T10:21:38.780Z,36.17
2017-05-13T10:22:22.240Z,35.87
2017-05-13T10:23:04.533Z,35.59
2017-05-13T10:23:45.594Z,35.31
2017-05-13T10:24:26.860Z,35.23
2017-05-13T10:25:07.247Z,35.05